sensor_id;sensor_type;location;lat;lon;timestamp;pressure;altitude;pressure_sealevel;temperature;humidity
13612;BME280;6877;51.436;6.774;2023-01-25T00:01:12;103343.91;;;-0.40;88.83
13612;BME280;6877;51.436;6.774;2023-01-25T00:03:39;103337.28;;;-0.37;89.14
13612;BME280;6877;51.436;6.774;2023-01-25T00:06:06;103336.28;;;-0.39;89.05
13612;BME280;6877;51.436;6.774;2023-01-25T00:08:33;103334.50;;;-0.40;89.52
13612;BME280;6877;51.436;6.774;2023-01-25T00:10:59;103336.19;;;-0.40;89.75
13612;BME280;6877;51.436;6.774;2023-01-25T00:13:26;103331.81;;;-0.41;89.39
13612;BME280;6877;51.436;6.774;2023-01-25T00:15:52;103336.75;;;-0.44;89.65
13612;BME280;6877;51.436;6.774;2023-01-25T00:18:19;103323.00;;;-0.45;89.63
13612;BME280;6877;51.436;6.774;2023-01-25T00:20:46;103327.16;;;-0.47;89.98
13612;BME280;6877;51.436;6.774;2023-01-25T00:23:13;103333.97;;;-0.48;89.66
13612;BME280;6877;51.436;6.774;2023-01-25T00:25:39;103324.38;;;-0.50;89.97
13612;BME280;6877;51.436;6.774;2023-01-25T00:28:06;103329.31;;;-0.53;90.09
13612;BME280;6877;51.436;6.774;2023-01-25T00:30:33;103325.75;;;-0.55;90.23
13612;BME280;6877;51.436;6.774;2023-01-25T00:35:43;103326.53;;;-0.56;90.24
13612;BME280;6877;51.436;6.774;2023-01-25T00:38:29;103315.44;;;-0.55;90.47
13612;BME280;6877;51.436;6.774;2023-01-25T00:40:56;103308.75;;;-0.53;90.07
13612;BME280;6877;51.436;6.774;2023-01-25T00:43:24;103306.16;;;-0.53;90.31
13612;BME280;6877;51.436;6.774;2023-01-25T00:45:51;103308.75;;;-0.53;90.20
13612;BME280;6877;51.436;6.774;2023-01-25T00:48:17;103302.59;;;-0.55;90.05
13612;BME280;6877;51.436;6.774;2023-01-25T00:50:44;103315.16;;;-0.60;90.37
13612;BME280;6877;51.436;6.774;2023-01-25T00:53:11;103297.72;;;-0.64;90.26
13612;BME280;6877;51.436;6.774;2023-01-25T00:55:37;103298.59;;;-0.63;90.37
13612;BME280;6877;51.436;6.774;2023-01-25T00:58:04;103307.09;;;-0.64;90.32
13612;BME280;6877;51.436;6.774;2023-01-25T01:00:30;103293.03;;;-0.70;90.41
13612;BME280;6877;51.436;6.774;2023-01-25T01:02:57;103301.75;;;-0.67;90.76
13612;BME280;6877;51.436;6.774;2023-01-25T01:05:24;103293.25;;;-0.66;90.62
13612;BME280;6877;51.436;6.774;2023-01-25T01:07:54;103298.19;;;-0.70;90.84
13612;BME280;6877;51.436;6.774;2023-01-25T01:10:21;103302.56;;;-0.68;90.79
13612;BME280;6877;51.436;6.774;2023-01-25T01:12:48;103302.56;;;-0.68;90.96
13612;BME280;6877;51.436;6.774;2023-01-25T01:15:14;103304.13;;;-0.71;90.83
13612;BME280;6877;51.436;6.774;2023-01-25T01:17:41;103301.34;;;-0.74;90.70
13612;BME280;6877;51.436;6.774;2023-01-25T01:20:08;103303.81;;;-0.75;90.81
13612;BME280;6877;51.436;6.774;2023-01-25T01:22:35;103293.09;;;-0.81;90.91
13612;BME280;6877;51.436;6.774;2023-01-25T01:25:01;103304.28;;;-0.81;90.73
13612;BME280;6877;51.436;6.774;2023-01-25T01:27:28;103300.81;;;-0.81;90.75
13612;BME280;6877;51.436;6.774;2023-01-25T01:29:55;103300.69;;;-0.83;90.93
13612;BME280;6877;51.436;6.774;2023-01-25T01:32:21;103307.84;;;-0.79;90.95
13612;BME280;6877;51.436;6.774;2023-01-25T01:34:48;103296.56;;;-0.81;90.98
13612;BME280;6877;51.436;6.774;2023-01-25T01:37:15;103299.13;;;-0.81;90.80
13612;BME280;6877;51.436;6.774;2023-01-25T01:39:41;103297.38;;;-0.82;90.74
13612;BME280;6877;51.436;6.774;2023-01-25T01:42:08;103295.56;;;-0.83;91.01
13612;BME280;6877;51.436;6.774;2023-01-25T01:44:49;103291.00;;;-0.87;91.01
13612;BME280;6877;51.436;6.774;2023-01-25T01:47:26;103293.44;;;-0.88;90.76
13612;BME280;6877;51.436;6.774;2023-01-25T01:49:58;103300.84;;;-0.93;91.02
13612;BME280;6877;51.436;6.774;2023-01-25T01:52:29;103291.94;;;-0.98;91.16
13612;BME280;6877;51.436;6.774;2023-01-25T01:55:07;103286.69;;;-1.00;90.93
13612;BME280;6877;51.436;6.774;2023-01-25T01:57:49;103291.84;;;-1.00;90.97
13612;BME280;6877;51.436;6.774;2023-01-25T02:00:30;103291.63;;;-1.03;91.16
13612;BME280;6877;51.436;6.774;2023-01-25T02:02:58;103293.84;;;-1.07;91.02
13612;BME280;6877;51.436;6.774;2023-01-25T02:08:13;103297.69;;;-1.14;91.46
13612;BME280;6877;51.436;6.774;2023-01-25T02:10:41;103293.47;;;-1.13;91.39
13612;BME280;6877;51.436;6.774;2023-01-25T02:13:09;103294.22;;;-1.14;91.68
13612;BME280;6877;51.436;6.774;2023-01-25T02:15:41;103290.88;;;-1.13;91.64
13612;BME280;6877;51.436;6.774;2023-01-25T02:18:09;103301.16;;;-1.13;91.75
13612;BME280;6877;51.436;6.774;2023-01-25T02:20:43;103296.03;;;-1.13;91.81
13612;BME280;6877;51.436;6.774;2023-01-25T02:23:49;103289.41;;;-1.10;92.05
13612;BME280;6877;51.436;6.774;2023-01-25T02:26:18;103293.63;;;-1.10;91.93
13612;BME280;6877;51.436;6.774;2023-01-25T02:28:51;103297.81;;;-1.12;91.62
13612;BME280;6877;51.436;6.774;2023-01-25T02:31:19;103301.16;;;-1.13;91.92
13612;BME280;6877;51.436;6.774;2023-01-25T02:33:45;103296.13;;;-1.12;91.89
13612;BME280;6877;51.436;6.774;2023-01-25T02:36:19;103294.56;;;-1.10;91.91
13612;BME280;6877;51.436;6.774;2023-01-25T02:41:38;103291.44;;;-1.18;91.74
13612;BME280;6877;51.436;6.774;2023-01-25T02:44:23;103292.81;;;-1.23;91.74
13612;BME280;6877;51.436;6.774;2023-01-25T02:46:51;103286.66;;;-1.25;92.36
13612;BME280;6877;51.436;6.774;2023-01-25T02:49:18;103285.88;;;-1.24;92.42
13612;BME280;6877;51.436;6.774;2023-01-25T02:51:49;103287.44;;;-1.26;92.43
13612;BME280;6877;51.436;6.774;2023-01-25T02:54:18;103283.28;;;-1.24;92.49
13612;BME280;6877;51.436;6.774;2023-01-25T02:56:46;103285.88;;;-1.24;92.39
13612;BME280;6877;51.436;6.774;2023-01-25T02:59:13;103283.50;;;-1.21;92.45
13612;BME280;6877;51.436;6.774;2023-01-25T03:01:41;103283.63;;;-1.19;92.14
13612;BME280;6877;51.436;6.774;2023-01-25T03:04:08;103292.69;;;-1.24;92.15
13612;BME280;6877;51.436;6.774;2023-01-25T03:06:36;103286.53;;;-1.26;92.30
13612;BME280;6877;51.436;6.774;2023-01-25T03:09:04;103293.94;;;-1.31;91.93
13612;BME280;6877;51.436;6.774;2023-01-25T03:11:32;103282.66;;;-1.33;92.15
13612;BME280;6877;51.436;6.774;2023-01-25T03:13:59;103283.34;;;-1.35;92.10
13612;BME280;6877;51.436;6.774;2023-01-25T03:16:26;103278.97;;;-1.36;92.13
13612;BME280;6877;51.436;6.774;2023-01-25T03:18:53;103274.72;;;-1.36;91.95
13612;BME280;6877;51.436;6.774;2023-01-25T03:21:21;103274.63;;;-1.37;92.16
13612;BME280;6877;51.436;6.774;2023-01-25T03:23:57;103274.94;;;-1.33;92.37
13612;BME280;6877;51.436;6.774;2023-01-25T03:26:25;103271.69;;;-1.30;92.42
13612;BME280;6877;51.436;6.774;2023-01-25T03:28:51;103262.31;;;-1.30;92.05
13612;BME280;6877;51.436;6.774;2023-01-25T03:31:19;103258.84;;;-1.30;92.08
13612;BME280;6877;51.436;6.774;2023-01-25T03:33:45;103263.91;;;-1.32;92.01
13612;BME280;6877;51.436;6.774;2023-01-25T03:36:12;103252.63;;;-1.34;92.06
13612;BME280;6877;51.436;6.774;2023-01-25T03:38:39;103248.16;;;-1.36;92.11
13612;BME280;6877;51.436;6.774;2023-01-25T03:41:05;103240.56;;;-1.35;92.14
13612;BME280;6877;51.436;6.774;2023-01-25T03:43:33;103245.69;;;-1.35;92.19
13612;BME280;6877;51.436;6.774;2023-01-25T03:46:00;103243.91;;;-1.36;92.37
13612;BME280;6877;51.436;6.774;2023-01-25T03:48:28;103236.91;;;-1.38;92.40
13612;BME280;6877;51.436;6.774;2023-01-25T03:50:57;103235.44;;;-1.35;92.66
13612;BME280;6877;51.436;6.774;2023-01-25T03:53:25;103235.22;;;-1.38;92.66
13612;BME280;6877;51.436;6.774;2023-01-25T03:56:03;103243.81;;;-1.37;92.41
13612;BME280;6877;51.436;6.774;2023-01-25T03:58:34;103235.31;;;-1.36;92.94
13612;BME280;6877;51.436;6.774;2023-01-25T04:01:03;103231.84;;;-1.37;92.82
13612;BME280;6877;51.436;6.774;2023-01-25T04:03:30;103226.72;;;-1.37;92.80
13612;BME280;6877;51.436;6.774;2023-01-25T04:05:57;103223.25;;;-1.37;92.99
13612;BME280;6877;51.436;6.774;2023-01-25T04:08:25;103218.22;;;-1.36;92.96
13612;BME280;6877;51.436;6.774;2023-01-25T04:11:05;103216.66;;;-1.34;93.08
13612;BME280;6877;51.436;6.774;2023-01-25T04:13:33;103214.28;;;-1.31;92.82
13612;BME280;6877;51.436;6.774;2023-01-25T04:16:03;103207.59;;;-1.29;92.89
13612;BME280;6877;51.436;6.774;2023-01-25T04:18:30;103209.25;;;-1.29;92.97
13612;BME280;6877;51.436;6.774;2023-01-25T04:20:57;103210.16;;;-1.29;92.95
13612;BME280;6877;51.436;6.774;2023-01-25T04:23:25;103204.44;;;-1.25;93.31
13612;BME280;6877;51.436;6.774;2023-01-25T04:26:00;103199.41;;;-1.23;93.19
13612;BME280;6877;51.436;6.774;2023-01-25T04:28:27;103193.38;;;-1.24;93.39
13612;BME280;6877;51.436;6.774;2023-01-25T04:30:55;103184.09;;;-1.22;93.50
13612;BME280;6877;51.436;6.774;2023-01-25T04:33:22;103188.56;;;-1.19;93.47
13612;BME280;6877;51.436;6.774;2023-01-25T04:35:54;103185.31;;;-1.17;92.92
13612;BME280;6877;51.436;6.774;2023-01-25T04:38:21;103186.88;;;-1.19;93.39
13612;BME280;6877;51.436;6.774;2023-01-25T04:40:49;103184.31;;;-1.19;93.19
13612;BME280;6877;51.436;6.774;2023-01-25T04:43:17;103172.94;;;-1.22;93.44
13612;BME280;6877;51.436;6.774;2023-01-25T04:45:45;103172.81;;;-1.24;93.31
13612;BME280;6877;51.436;6.774;2023-01-25T04:48:12;103168.56;;;-1.23;93.80
13612;BME280;6877;51.436;6.774;2023-01-25T04:50:40;103171.03;;;-1.25;93.59
13612;BME280;6877;51.436;6.774;2023-01-25T04:53:09;103163.44;;;-1.23;93.71
13612;BME280;6877;51.436;6.774;2023-01-25T04:55:36;103169.56;;;-1.21;93.92
13612;BME280;6877;51.436;6.774;2023-01-25T04:58:03;103169.47;;;-1.23;93.89
13612;BME280;6877;51.436;6.774;2023-01-25T05:00:30;103167.88;;;-1.21;94.09
13612;BME280;6877;51.436;6.774;2023-01-25T05:02:57;103167.81;;;-1.22;94.05
13612;BME280;6877;51.436;6.774;2023-01-25T05:05:24;103164.44;;;-1.21;94.21
13612;BME280;6877;51.436;6.774;2023-01-25T05:07:51;103166.31;;;-1.19;94.01
13612;BME280;6877;51.436;6.774;2023-01-25T05:10:17;103162.19;;;-1.17;94.32
13612;BME280;6877;51.436;6.774;2023-01-25T05:12:44;103164.84;;;-1.15;94.00
13612;BME280;6877;51.436;6.774;2023-01-25T05:15:11;103171.09;;;-1.11;94.01
13612;BME280;6877;51.436;6.774;2023-01-25T05:17:38;103170.88;;;-1.14;93.98
13612;BME280;6877;51.436;6.774;2023-01-25T05:20:05;103169.41;;;-1.11;94.00
13612;BME280;6877;51.436;6.774;2023-01-25T05:22:31;103166.75;;;-1.12;93.89
13612;BME280;6877;51.436;6.774;2023-01-25T05:24:58;103167.53;;;-1.13;93.77
13612;BME280;6877;51.436;6.774;2023-01-25T05:27:27;103159.84;;;-1.13;93.44
13612;BME280;6877;51.436;6.774;2023-01-25T05:29:54;103163.16;;;-1.14;93.63
13612;BME280;6877;51.436;6.774;2023-01-25T05:32:21;103159.84;;;-1.13;93.54
13612;BME280;6877;51.436;6.774;2023-01-25T05:34:49;103154.50;;;-1.17;93.87
13612;BME280;6877;51.436;6.774;2023-01-25T05:37:18;103152.69;;;-1.18;93.74
13612;BME280;6877;51.436;6.774;2023-01-25T05:39:44;103162.28;;;-1.15;94.24
13612;BME280;6877;51.436;6.774;2023-01-25T05:42:16;103157.34;;;-1.12;93.89
13612;BME280;6877;51.436;6.774;2023-01-25T05:44:48;103161.81;;;-1.09;94.01
13612;BME280;6877;51.436;6.774;2023-01-25T05:47:19;103155.88;;;-1.08;93.54
13612;BME280;6877;51.436;6.774;2023-01-25T05:49:46;103166.16;;;-1.08;93.85
13612;BME280;6877;51.436;6.774;2023-01-25T05:52:14;103161.81;;;-1.09;94.14
13612;BME280;6877;51.436;6.774;2023-01-25T05:54:52;103160.13;;;-1.09;93.80
13612;BME280;6877;51.436;6.774;2023-01-25T05:57:24;103152.31;;;-1.10;93.95
13612;BME280;6877;51.436;6.774;2023-01-25T05:59:51;103153.44;;;-1.07;94.13
13612;BME280;6877;51.436;6.774;2023-01-25T06:02:17;103148.38;;;-1.05;93.98
13612;BME280;6877;51.436;6.774;2023-01-25T06:04:44;103142.56;;;-1.03;93.91
13612;BME280;6877;51.436;6.774;2023-01-25T06:07:10;103148.59;;;-1.02;93.97
13612;BME280;6877;51.436;6.774;2023-01-25T06:09:37;103147.03;;;-1.00;94.05
13612;BME280;6877;51.436;6.774;2023-01-25T06:12:04;103147.22;;;-0.97;93.79
13612;BME280;6877;51.436;6.774;2023-01-25T06:14:32;103147.44;;;-0.94;94.17
13612;BME280;6877;51.436;6.774;2023-01-25T06:16:58;103145.63;;;-0.95;93.63
13612;BME280;6877;51.436;6.774;2023-01-25T06:19:25;103138.63;;;-0.98;93.69
13612;BME280;6877;51.436;6.774;2023-01-25T06:21:52;103149.00;;;-0.96;93.57
13612;BME280;6877;51.436;6.774;2023-01-25T06:24:18;103150.56;;;-0.98;93.47
13612;BME280;6877;51.436;6.774;2023-01-25T06:26:45;103149.59;;;-1.00;93.76
13612;BME280;6877;51.436;6.774;2023-01-25T06:29:12;103148.00;;;-0.98;93.75
13612;BME280;6877;51.436;6.774;2023-01-25T06:31:38;103144.75;;;-0.96;93.83
13612;BME280;6877;51.436;6.774;2023-01-25T06:34:05;103143.97;;;-0.95;93.83
13612;BME280;6877;51.436;6.774;2023-01-25T06:36:34;103137.81;;;-0.97;93.56
13612;BME280;6877;51.436;6.774;2023-01-25T06:39:01;103133.50;;;-0.98;93.72
13612;BME280;6877;51.436;6.774;2023-01-25T06:41:30;103132.00;;;-0.94;93.67
13612;BME280;6877;51.436;6.774;2023-01-25T06:43:57;103140.69;;;-0.92;93.75
13612;BME280;6877;51.436;6.774;2023-01-25T06:46:24;103136.44;;;-0.91;93.50
13612;BME280;6877;51.436;6.774;2023-01-25T06:48:51;103140.69;;;-0.92;93.59
13612;BME280;6877;51.436;6.774;2023-01-25T06:51:17;103147.72;;;-0.89;93.82
13612;BME280;6877;51.436;6.774;2023-01-25T06:53:45;103140.00;;;-0.89;93.37
13612;BME280;6877;51.436;6.774;2023-01-25T06:56:16;103147.63;;;-0.91;93.47
13612;BME280;6877;51.436;6.774;2023-01-25T06:58:44;103145.06;;;-0.91;93.72
13612;BME280;6877;51.436;6.774;2023-01-25T07:01:16;103142.59;;;-0.89;93.97
13612;BME280;6877;51.436;6.774;2023-01-25T07:03:49;103136.75;;;-0.87;94.01
13612;BME280;6877;51.436;6.774;2023-01-25T07:06:17;103140.13;;;-0.88;93.94
13612;BME280;6877;51.436;6.774;2023-01-25T07:08:45;103141.09;;;-0.86;93.47
13612;BME280;6877;51.436;6.774;2023-01-25T07:11:12;103136.75;;;-0.87;93.42
13612;BME280;6877;51.436;6.774;2023-01-25T07:13:41;103140.34;;;-0.85;93.63
13612;BME280;6877;51.436;6.774;2023-01-25T07:16:11;103138.53;;;-0.86;93.59
13612;BME280;6877;51.436;6.774;2023-01-25T07:18:38;103141.91;;;-0.87;93.44
13612;BME280;6877;51.436;6.774;2023-01-25T07:21:11;103133.31;;;-0.87;93.38
13612;BME280;6877;51.436;6.774;2023-01-25T07:23:39;103138.44;;;-0.87;93.54
13612;BME280;6877;51.436;6.774;2023-01-25T07:26:15;103140.91;;;-0.89;93.13
13612;BME280;6877;51.436;6.774;2023-01-25T07:28:43;103137.34;;;-0.91;93.17
13612;BME280;6877;51.436;6.774;2023-01-25T07:31:10;103127.06;;;-0.91;93.38
13612;BME280;6877;51.436;6.774;2023-01-25T07:33:37;103131.41;;;-0.90;93.17
13612;BME280;6877;51.436;6.774;2023-01-25T07:36:06;103132.78;;;-0.95;93.21
13612;BME280;6877;51.436;6.774;2023-01-25T07:38:33;103133.16;;;-1.02;93.17
13612;BME280;6877;51.436;6.774;2023-01-25T07:41:01;103134.03;;;-1.02;93.37
13612;BME280;6877;51.436;6.774;2023-01-25T07:43:28;103133.50;;;-0.98;93.25
13612;BME280;6877;51.436;6.774;2023-01-25T07:46:03;103126.47;;;-1.00;93.24
13612;BME280;6877;51.436;6.774;2023-01-25T07:48:30;103125.44;;;-1.02;92.90
13612;BME280;6877;51.436;6.774;2023-01-25T07:51:00;103122.88;;;-1.02;93.23
13612;BME280;6877;51.436;6.774;2023-01-25T07:53:45;103123.69;;;-1.03;93.43
13612;BME280;6877;51.436;6.774;2023-01-25T07:56:13;103115.28;;;-1.01;93.38
13612;BME280;6877;51.436;6.774;2023-01-25T07:58:40;103119.91;;;-0.95;93.60
13612;BME280;6877;51.436;6.774;2023-01-25T08:01:08;103121.13;;;-0.90;93.31
13612;BME280;6877;51.436;6.774;2023-01-25T08:03:35;103109.47;;;-0.85;93.21
13612;BME280;6877;51.436;6.774;2023-01-25T08:06:02;103113.03;;;-0.83;92.94
13612;BME280;6877;51.436;6.774;2023-01-25T08:08:34;103114.03;;;-0.81;92.77
13612;BME280;6877;51.436;6.774;2023-01-25T08:11:10;103109.09;;;-0.78;92.81
13612;BME280;6877;51.436;6.774;2023-01-25T08:13:41;103110.84;;;-0.77;92.76
13612;BME280;6877;51.436;6.774;2023-01-25T08:16:13;103099.88;;;-0.74;92.44
13612;BME280;6877;51.436;6.774;2023-01-25T08:18:39;103114.63;;;-0.72;92.55
13612;BME280;6877;51.436;6.774;2023-01-25T08:21:07;103106.03;;;-0.72;92.04
13612;BME280;6877;51.436;6.774;2023-01-25T08:23:34;103105.72;;;-0.77;91.56
13612;BME280;6877;51.436;6.774;2023-01-25T08:26:02;103109.56;;;-0.83;91.68
13612;BME280;6877;51.436;6.774;2023-01-25T08:28:30;103107.69;;;-0.86;91.59
13612;BME280;6877;51.436;6.774;2023-01-25T08:31:38;103107.59;;;-0.87;91.53
13612;BME280;6877;51.436;6.774;2023-01-25T08:33:58;103103.94;;;-0.91;92.05
13612;BME280;6877;51.436;6.774;2023-01-25T08:36:26;103109.06;;;-0.91;91.93
13612;BME280;6877;51.436;6.774;2023-01-25T08:38:56;103099.75;;;-0.89;92.01
13612;BME280;6877;51.436;6.774;2023-01-25T08:41:27;103101.06;;;-0.82;92.13
13612;BME280;6877;51.436;6.774;2023-01-25T08:43:54;103094.53;;;-0.77;92.12
13612;BME280;6877;51.436;6.774;2023-01-25T08:46:23;103097.41;;;-0.73;91.89
13612;BME280;6877;51.436;6.774;2023-01-25T08:48:54;103088.13;;;-0.71;91.83
13612;BME280;6877;51.436;6.774;2023-01-25T08:51:22;103090.00;;;-0.68;91.60
13612;BME280;6877;51.436;6.774;2023-01-25T08:53:50;103080.81;;;-0.64;91.39
13612;BME280;6877;51.436;6.774;2023-01-25T08:56:17;103075.78;;;-0.63;91.51
13612;BME280;6877;51.436;6.774;2023-01-25T08:58:45;103073.19;;;-0.63;91.21
13612;BME280;6877;51.436;6.774;2023-01-25T09:01:14;103064.00;;;-0.59;91.40
13612;BME280;6877;51.436;6.774;2023-01-25T09:03:44;103062.59;;;-0.54;91.72
13612;BME280;6877;51.436;6.774;2023-01-25T09:06:12;103065.56;;;-0.48;91.46
13612;BME280;6877;51.436;6.774;2023-01-25T09:08:40;103065.75;;;-0.45;91.10
13612;BME280;6877;51.436;6.774;2023-01-25T09:11:14;103059.03;;;-0.43;91.08
13612;BME280;6877;51.436;6.774;2023-01-25T09:13:43;103061.59;;;-0.43;90.71
13612;BME280;6877;51.436;6.774;2023-01-25T09:16:20;103059.84;;;-0.44;90.57
13612;BME280;6877;51.436;6.774;2023-01-25T09:19:01;103052.31;;;-0.41;90.70
13612;BME280;6877;51.436;6.774;2023-01-25T09:21:28;103049.94;;;-0.38;90.67
13612;BME280;6877;51.436;6.774;2023-01-25T09:23:55;103051.69;;;-0.37;90.32
13612;BME280;6877;51.436;6.774;2023-01-25T09:26:22;103051.69;;;-0.37;90.33
13612;BME280;6877;51.436;6.774;2023-01-25T09:28:51;103045.75;;;-0.36;90.23
13612;BME280;6877;51.436;6.774;2023-01-25T09:31:19;103040.72;;;-0.34;90.26
13612;BME280;6877;51.436;6.774;2023-01-25T09:33:49;103040.78;;;-0.33;90.32
13612;BME280;6877;51.436;6.774;2023-01-25T09:36:16;103039.31;;;-0.29;90.37
13612;BME280;6877;51.436;6.774;2023-01-25T09:38:43;103028.31;;;-0.27;90.20
13612;BME280;6877;51.436;6.774;2023-01-25T09:46:42;103029.06;;;-0.14;89.69
13612;BME280;6877;51.436;6.774;2023-01-25T09:49:35;103028.19;;;-0.15;89.50
13612;BME280;6877;51.436;6.774;2023-01-25T09:54:50;103031.88;;;-0.25;88.72
13612;BME280;6877;51.436;6.774;2023-01-25T09:57:36;103036.72;;;-0.29;88.92
13612;BME280;6877;51.436;6.774;2023-01-25T10:00:16;103029.91;;;-0.29;89.47
13612;BME280;6877;51.436;6.774;2023-01-25T10:03:00;103023.38;;;-0.24;89.24
13612;BME280;6877;51.436;6.774;2023-01-25T10:05:32;103022.06;;;-0.17;89.20
13612;BME280;6877;51.436;6.774;2023-01-25T10:08:04;103017.22;;;-0.12;89.06
13612;BME280;6877;51.436;6.774;2023-01-25T10:10:36;103021.75;;;-0.08;89.03
13612;BME280;6877;51.436;6.774;2023-01-25T10:13:11;103020.03;;;-0.08;88.63
13612;BME280;6877;51.436;6.774;2023-01-25T10:15:50;103018.16;;;-0.10;88.86
13612;BME280;6877;51.436;6.774;2023-01-25T10:21:19;103020.56;;;-0.13;88.66
13612;BME280;6877;51.436;6.774;2023-01-25T10:26:33;103018.78;;;-0.14;88.49
13612;BME280;6877;51.436;6.774;2023-01-25T10:29:20;103009.38;;;-0.14;88.62
13612;BME280;6877;51.436;6.774;2023-01-25T10:31:49;103009.47;;;-0.12;88.37
13612;BME280;6877;51.436;6.774;2023-01-25T10:34:30;103007.19;;;-0.08;88.74
13612;BME280;6877;51.436;6.774;2023-01-25T10:37:03;103004.09;;;-0.02;88.38
13612;BME280;6877;51.436;6.774;2023-01-25T10:39:39;102999.03;;;-0.01;88.39
13612;BME280;6877;51.436;6.774;2023-01-25T10:42:11;102989.72;;;0.02;88.11
13612;BME280;6877;51.436;6.774;2023-01-25T10:44:40;102984.84;;;0.06;87.86
13612;BME280;6877;51.436;6.774;2023-01-25T10:47:20;102978.22;;;0.10;88.05
13612;BME280;6877;51.436;6.774;2023-01-25T10:49:56;102975.91;;;0.14;87.75
13612;BME280;6877;51.436;6.774;2023-01-25T10:52:31;102968.97;;;0.13;87.39
13612;BME280;6877;51.436;6.774;2023-01-25T10:55:14;102967.19;;;0.12;87.23
13612;BME280;6877;51.436;6.774;2023-01-25T10:57:48;102960.97;;;0.09;87.14
13612;BME280;6877;51.436;6.774;2023-01-25T11:02:53;102964.53;;;0.11;87.04
13612;BME280;6877;51.436;6.774;2023-01-25T11:07:53;102944.81;;;0.11;87.03
13612;BME280;6877;51.436;6.774;2023-01-25T11:10:36;102945.00;;;0.14;86.66
13612;BME280;6877;51.436;6.774;2023-01-25T11:15:44;102944.81;;;0.11;86.95
13612;BME280;6877;51.436;6.774;2023-01-25T11:20:44;102937.38;;;0.16;86.62
13612;BME280;6877;51.436;6.774;2023-01-25T11:23:22;102932.31;;;0.17;86.52
13612;BME280;6877;51.436;6.774;2023-01-25T11:25:52;102923.88;;;0.20;86.54
13612;BME280;6877;51.436;6.774;2023-01-25T11:28:21;102918.03;;;0.22;86.60
13612;BME280;6877;51.436;6.774;2023-01-25T11:30:52;102910.13;;;0.19;86.00
13612;BME280;6877;51.436;6.774;2023-01-25T11:33:20;102903.09;;;0.17;86.31
13612;BME280;6877;51.436;6.774;2023-01-25T11:41:48;102888.28;;;0.13;86.42
13612;BME280;6877;51.436;6.774;2023-01-25T11:53:02;102866.59;;;0.09;86.46
13612;BME280;6877;51.436;6.774;2023-01-25T12:01:37;102850.72;;;0.02;86.55
13612;BME280;6877;51.436;6.774;2023-01-25T12:07:01;102833.94;;;0.08;86.65
13612;BME280;6877;51.436;6.774;2023-01-25T12:13:02;102807.13;;;0.19;86.19
13612;BME280;6877;51.436;6.774;2023-01-25T12:18:49;102789.53;;;0.12;85.97
13612;BME280;6877;51.436;6.774;2023-01-25T12:26:51;102773.66;;;0.05;85.90
13612;BME280;6877;51.436;6.774;2023-01-25T12:29:35;102770.09;;;0.03;86.36
13612;BME280;6877;51.436;6.774;2023-01-25T12:34:51;102755.81;;;-0.07;86.18
13612;BME280;6877;51.436;6.774;2023-01-25T12:37:33;102744.19;;;-0.01;86.49
13612;BME280;6877;51.436;6.774;2023-01-25T12:40:28;102748.00;;;0.06;86.43
13612;BME280;6877;51.436;6.774;2023-01-25T12:42:58;102744.88;;;0.12;86.59
13612;BME280;6877;51.436;6.774;2023-01-25T12:45:30;102734.59;;;0.12;86.32
13612;BME280;6877;51.436;6.774;2023-01-25T12:48:02;102725.34;;;0.15;86.07
13612;BME280;6877;51.436;6.774;2023-01-25T12:50:41;102720.34;;;0.18;86.11
13612;BME280;6877;51.436;6.774;2023-01-25T12:53:20;102718.75;;;0.20;86.13
13612;BME280;6877;51.436;6.774;2023-01-25T12:55:50;102713.78;;;0.23;86.06
13612;BME280;6877;51.436;6.774;2023-01-25T12:58:39;102703.16;;;0.17;85.76
13612;BME280;6877;51.436;6.774;2023-01-25T13:01:32;102711.41;;;0.12;85.56
13612;BME280;6877;51.436;6.774;2023-01-25T13:04:23;102700.53;;;0.01;85.92
13612;BME280;6877;51.436;6.774;2023-01-25T13:07:06;102693.44;;;-0.03;85.94
13612;BME280;6877;51.436;6.774;2023-01-25T13:09:57;102682.34;;;-0.02;86.22
13612;BME280;6877;51.436;6.774;2023-01-25T13:12:25;102678.88;;;-0.03;86.32
13612;BME280;6877;51.436;6.774;2023-01-25T13:14:55;102680.56;;;-0.03;86.16
13612;BME280;6877;51.436;6.774;2023-01-25T13:17:31;102664.16;;;-0.05;86.86
13612;BME280;6877;51.436;6.774;2023-01-25T13:20:01;102668.50;;;-0.04;86.55
13612;BME280;6877;51.436;6.774;2023-01-25T13:25:22;102653.50;;;-0.11;86.41
13612;BME280;6877;51.436;6.774;2023-01-25T13:27:49;102656.72;;;-0.15;86.62
13612;BME280;6877;51.436;6.774;2023-01-25T13:30:29;102657.63;;;-0.15;86.99
13612;BME280;6877;51.436;6.774;2023-01-25T13:33:00;102652.13;;;-0.21;86.93
13612;BME280;6877;51.436;6.774;2023-01-25T13:38:00;102640.25;;;-0.19;87.23
13612;BME280;6877;51.436;6.774;2023-01-25T13:40:36;102647.31;;;-0.15;87.52
13612;BME280;6877;51.436;6.774;2023-01-25T13:43:20;102651.13;;;-0.08;87.11
13612;BME280;6877;51.436;6.774;2023-01-25T13:45:49;102646.94;;;-0.06;87.03
13612;BME280;6877;51.436;6.774;2023-01-25T13:48:28;102640.00;;;-0.07;87.07
13612;BME280;6877;51.436;6.774;2023-01-25T13:51:00;102632.75;;;-0.14;87.10
13612;BME280;6877;51.436;6.774;2023-01-25T13:53:30;102630.81;;;-0.18;87.40
13612;BME280;6877;51.436;6.774;2023-01-25T13:56:01;102634.75;;;-0.25;87.49
13612;BME280;6877;51.436;6.774;2023-01-25T13:58:33;102635.81;;;-0.21;87.66
13612;BME280;6877;51.436;6.774;2023-01-25T14:01:12;102634.34;;;-0.16;87.55
13612;BME280;6877;51.436;6.774;2023-01-25T14:06:16;102625.56;;;-0.20;87.38
13612;BME280;6877;51.436;6.774;2023-01-25T14:08:44;102631.72;;;-0.18;87.83
13612;BME280;6877;51.436;6.774;2023-01-25T14:11:21;102633.56;;;-0.15;87.61
13612;BME280;6877;51.436;6.774;2023-01-25T14:14:13;102631.06;;;-0.14;87.67
13612;BME280;6877;51.436;6.774;2023-01-25T14:16:42;102627.09;;;-0.24;87.58
13612;BME280;6877;51.436;6.774;2023-01-25T14:19:24;102625.16;;;-0.28;88.49
13612;BME280;6877;51.436;6.774;2023-01-25T14:24:38;102614.34;;;-0.22;88.62
13612;BME280;6877;51.436;6.774;2023-01-25T14:27:12;102616.97;;;-0.20;88.30
13612;BME280;6877;51.436;6.774;2023-01-25T14:29:40;102614.25;;;-0.24;88.38
13612;BME280;6877;51.436;6.774;2023-01-25T14:32:15;102617.53;;;-0.26;88.44
13612;BME280;6877;51.436;6.774;2023-01-25T14:34:45;102613.09;;;-0.29;88.87
13612;BME280;6877;51.436;6.774;2023-01-25T14:37:18;102613.66;;;-0.34;88.52
13612;BME280;6877;51.436;6.774;2023-01-25T14:39:47;102610.09;;;-0.36;88.79
13612;BME280;6877;51.436;6.774;2023-01-25T14:42:18;102603.91;;;-0.40;88.83